This is the latest recevied weather packets stored in our database for station/object KM4KBD. If no packets are shown the sender has not sent any weather packets the latest 10 day(s).
| Time | Temp. | Humidity | Pressure | Rain* | Wind** | Luminosity | Snow |
|---|---|---|---|---|---|---|---|
| 1777559441 | 12.78° C | 56% | 1022.5 hPa | 0 mm | - | 534 W/m² | - |
| 1777559139 | 12.22° C | 58% | 1022.7 hPa | 0 mm | - | 524 W/m² | - |
| 1777558839 | 11.67° C | 59% | 1022.2 hPa | 0 mm | - | 508 W/m² | - |
| 1777558534 | 11.67° C | 62% | 1022.3 hPa | 0 mm | - | 497 W/m² | - |
| 1777558231 | 12.22° C | 59% | 1022.3 hPa | 0 mm | - | 483 W/m² | - |
| 1777557927 | 11.67° C | 61% | 1022.4 hPa | 0 mm | - | 471 W/m² | - |
| 1777557624 | 11.11° C | 60% | 1022.4 hPa | 0 mm | - | 456 W/m² | - |
| 1777557320 | 11.11° C | 60% | 1022.8 hPa | 0 mm | - | 443 W/m² | - |
| 1777557017 | 10.56° C | 64% | 1022.6 hPa | 0 mm | - | 429 W/m² | - |
| 1777556712 | 10.56° C | 61% | 1022.7 hPa | 0 mm | - | 411 W/m² | - |
| 1777556409 | 10.56° C | 65% | 1022.6 hPa | 0 mm | - | 392 W/m² | - |
| 1777556109 | 10° C | 68% | 1022.8 hPa | 0 mm | - | 381 W/m² | - |
| 1777555804 | 10.56° C | 67% | 1022.6 hPa | 0 mm | - | 365 W/m² | - |
| 1777555500 | 10.56° C | 65% | 1022.7 hPa | 0 mm | - | 352 W/m² | - |
| 1777555196 | 10° C | 68% | 1022.3 hPa | 0 mm | - | 336 W/m² | - |
| 1777554894 | 10° C | 68% | 1022.5 hPa | 0 mm | - | 321 W/m² | - |
| 1777554590 | 9.44° C | 73% | 1022.4 hPa | 0 mm | - | 306 W/m² | - |
| 1777554287 | 9.44° C | 73% | 1022.5 hPa | 0 mm | - | 286 W/m² | - |
| 1777553984 | 8.89° C | 73% | 1022.4 hPa | 0 mm | - | 48 W/m² | - |
| 1777553681 | 8.89° C | 72% | 1022.6 hPa | 0 mm | - | 45 W/m² | - |
| 1777553378 | 8.89° C | 74% | 1022.5 hPa | 0 mm | - | 44 W/m² | - |
| 1777553074 | 8.89° C | 72% | 1022.5 hPa | 0 mm | - | 43 W/m² | - |
| 1777552769 | 8.89° C | 74% | 1022.5 hPa | 0 mm | - | 43 W/m² | - |
| 1777552464 | 8.89° C | 76% | 1022.5 hPa | 0 mm | - | 42 W/m² | - |
| 1777552161 | 8.89° C | 78% | 1022.5 hPa | 0 mm | - | 43 W/m² | - |
* Rain latest hour (hover to see other rain measurements)
** Current wind speed in m/s (hover to see current wind gust speed)